Terminal Aerodrome Forecast
Issued by NWS

Home | Current Version | Previous Version | Text Only | Print | Product List | Glossary Off
Versions: 1 2 3 4 5 6 7 8 9 10 11 12 13 14 15 16 17 18 19

178
FTUS43 KTOP 232333
TAFMHK
TAF
KMHK 232333Z 2400/2424 17010KT P6SM FEW020 BKN200
     FM240800 17007KT 6SM SHRA BR VCTS BKN025CB
     FM241400 18009KT P6SM SCT025 BKN150=

USA.gov is the U.S. government's official web portal to all federal, state and local government web resources and services.